Main page
METAR-TAF:

METAR-TAF

Airports :

Paulo Afonso Airport

Paulo Afonso, Bahia, Brazil

latitude: 09-24S, longitude: 038-13W, elevation: 253 m

Current weather observation

The report was made 7 hours and 57 minutes ago, at 19:00 UTC
Wind 13 kt from the Southeast
Temperature 31°C
Humidity 36%
Pressure 1016 hPa
Visibility 10 km or more
Few clouds at a height of 2100 ft

METAR: SBUF 231900Z 14013KT 9999 FEW021 31/14 Q1016

Time: 23:57 (02:57 UTC)


TAF: missing

Weather observations and forecasts of more than 4000 airports (METAR and TAF reports).

The available stations are represented by yellow and red dots on the map.

Hover mouse over dot to see the name of the station.

Then click to see weather observations and forecasts.

To change the map : click on the green buttons with a black cross to zoom in, on the green button with a dash to zoom out, or on the green arrows for adjacent maps.


METAR-TAF: